Time;durP1;ratioP1;P1;durP2;ratioP2;P2;SDS_P1;SDS_P2;PMS_P1;PMS_P2;Temp;Humidity;BMP_temperature;BMP_pressure;BME280_temperature;BME280_humidity;BME280_pressure;Samples;Min_cycle;Max_cycle;Signal;HPM_P1;HPM_P2
2021/12/28 00:05:43;;;;;;;53.87;49.17;;;;;;;10.60;100.00;98842.48;1842387;76;85484;-75
2021/12/28 00:11:30;;;;;;;51.50;47.00;;;;;;;10.66;100.00;98864.73;1908096;73;85667;-75
2021/12/28 00:23:19;;;;;;;51.00;46.80;;;;;;;10.82;100.00;98875.53;1920123;74;86541;-73
2021/12/28 00:29:01;;;;;;;49.47;45.33;;;;;;;10.87;100.00;98880.87;1909485;72;85559;-72
2021/12/28 00:34:45;;;;;;;49.87;45.40;;;;;;;10.89;100.00;98873.84;1811791;78;86490;-73
2021/12/28 00:40:30;;;;;;;50.70;46.13;;;;;;;10.83;100.00;98872.40;1807795;78;86089;-73
2021/12/28 00:46:15;;;;;;;51.30;47.40;;;;;;;10.85;100.00;98888.73;1926801;73;86649;-73
2021/12/28 00:51:59;;;;;;;51.10;47.00;;;;;;;10.98;100.00;98889.08;1980281;71;39753;-74
2021/12/28 00:57:43;;;;;;;51.00;46.70;;;;;;;10.90;100.00;98886.59;1832631;75;86320;-72
2021/12/28 01:03:29;;;;;;;48.73;45.03;;;;;;;10.68;100.00;98888.25;1800645;78;86633;-72
2021/12/28 01:09:14;;;;;;;50.73;46.57;;;;;;;10.80;100.00;98886.14;1917488;73;86016;-75
2021/12/28 01:14:58;;;;;;;49.93;46.30;;;;;;;10.79;100.00;98883.13;1944275;71;40196;-72
2021/12/28 01:20:43;;;;;;;50.13;46.03;;;;;;;10.70;100.00;98879.56;1834196;76;86632;-72
2021/12/28 01:26:27;;;;;;;48.93;45.03;;;;;;;10.69;100.00;98882.95;1904038;73;86610;-73
2021/12/28 01:32:10;;;;;;;48.80;44.77;;;;;;;10.80;100.00;98877.24;1919960;73;85872;-75
2021/12/28 01:37:55;;;;;;;45.83;42.27;;;;;;;10.88;100.00;98889.45;1975711;71;39733;-75
2021/12/28 01:43:41;;;;;;;51.53;47.67;;;;;;;10.96;100.00;98893.56;1852059;76;85411;-74
2021/12/28 01:49:26;;;;;;;48.87;44.67;;;;;;;11.08;100.00;98893.44;1894400;74;86620;-73
2021/12/28 01:55:11;;;;;;;48.93;45.30;;;;;;;11.06;100.00;98895.16;1911528;74;86773;-74
2021/12/28 02:01:00;;;;;;;49.00;45.17;;;;;;;11.10;100.00;98906.40;1975559;71;39545;-72
2021/12/28 02:06:46;;;;;;;50.07;46.37;;;;;;;11.14;100.00;98909.56;1810821;78;86031;-72
2021/12/28 02:12:32;;;;;;;52.37;48.67;;;;;;;10.98;100.00;98909.91;1810205;78;85929;-75
2021/12/28 02:18:18;;;;;;;50.07;46.37;;;;;;;10.86;100.00;98902.30;1910157;74;86779;-72
2021/12/28 02:24:07;;;;;;;49.20;45.60;;;;;;;10.69;100.00;98909.89;1925322;73;86386;-75
2021/12/28 02:29:50;;;;;;;49.03;45.43;;;;;;;10.69;100.00;98912.67;1983631;71;39547;-72
2021/12/28 02:35:39;;;;;;;51.03;47.23;;;;;;;10.84;100.00;98912.09;1950657;73;86542;-72
2021/12/28 02:41:24;;;;;;;50.33;46.43;;;;;;;10.95;100.00;98906.42;1908347;73;86574;-72
2021/12/28 02:47:18;;;;;;;49.17;45.30;;;;;;;10.99;100.00;98917.09;1904997;74;86848;-74
2021/12/28 02:53:04;;;;;;;48.10;44.57;;;;;;;10.98;100.00;98907.12;1911408;72;86201;-74
2021/12/28 02:58:51;;;;;;;49.20;44.47;;;;;;;11.14;100.00;98879.00;1977577;71;39542;-74
2021/12/28 03:04:37;;;;;;;47.67;44.47;;;;;;;10.96;100.00;98854.68;1854049;76;86686;-73
2021/12/28 03:10:21;;;;;;;49.40;45.27;;;;;;;11.06;100.00;98859.61;1883456;75;85710;-74
2021/12/28 03:16:06;;;;;;;48.17;44.33;;;;;;;11.18;100.00;98866.63;1912948;74;85450;-74
2021/12/28 03:21:51;;;;;;;50.10;46.53;;;;;;;11.11;100.00;98861.62;1987736;71;39604;-73
2021/12/28 03:30:52;;;;;;;48.47;45.00;;;;;;;11.35;100.00;98881.22;1987134;71;39657;-73
2021/12/28 03:36:37;;;;;;;47.80;43.93;;;;;;;11.36;100.00;98894.55;1844746;76;86486;-72
2021/12/28 03:42:21;;;;;;;47.03;43.40;;;;;;;11.43;100.00;98889.25;1883824;75;86328;-75
2021/12/28 03:48:08;;;;;;;46.40;43.17;;;;;;;11.44;100.00;98903.39;1912239;74;86684;-73
2021/12/28 03:53:54;;;;;;;48.40;45.03;;;;;;;11.39;100.00;98900.23;1983986;71;39699;-72
2021/12/28 03:59:38;;;;;;;48.10;44.53;;;;;;;11.26;100.00;98896.32;1843362;76;86518;-72
2021/12/28 04:05:22;;;;;;;46.67;43.53;;;;;;;11.32;100.00;98904.71;1884679;74;86604;-73
2021/12/28 04:11:25;;;;;;;45.47;42.13;;;;;;;11.40;100.00;98925.50;1917275;73;86983;-72
2021/12/28 04:17:02;;;;;;;47.07;44.17;;;;;;;11.40;100.00;98898.28;1903593;72;86425;-72
2021/12/28 04:22:47;;;;;;;48.40;45.37;;;;;;;11.43;100.00;98903.15;1872492;74;86293;-72
2021/12/28 04:28:30;;;;;;;50.17;47.07;;;;;;;11.43;100.00;98897.59;1800984;78;85494;-72
2021/12/28 04:34:14;;;;;;;47.33;44.43;;;;;;;11.41;100.00;98908.25;1921635;73;86847;-74
2021/12/28 04:39:58;;;;;;;48.23;45.03;;;;;;;11.45;100.00;98910.59;1941285;71;39479;-74
2021/12/28 04:45:42;;;;;;;47.77;44.67;;;;;;;11.36;100.00;98916.20;1860323;75;86537;-72
2021/12/28 04:51:28;;;;;;;48.97;45.97;;;;;;;11.34;100.00;98917.68;1893478;74;86814;-74
2021/12/28 04:57:12;;;;;;;49.33;46.20;;;;;;;11.31;100.00;98914.19;1918518;73;86487;-72
2021/12/28 05:02:57;;;;;;;49.00;46.10;;;;;;;11.20;100.00;98918.53;1957719;72;39452;-72
2021/12/28 05:08:42;;;;;;;50.93;47.80;;;;;;;11.24;100.00;98922.27;1873717;76;86443;-74
2021/12/28 05:14:26;;;;;;;51.47;48.17;;;;;;;11.19;100.00;98919.09;1867764;75;86443;-73
2021/12/28 05:20:12;;;;;;;49.80;46.73;;;;;;;11.21;100.00;98927.89;1938647;73;86543;-74
2021/12/28 05:25:56;;;;;;;50.90;47.80;;;;;;;11.29;100.00;98927.63;1955077;71;39725;-73
2021/12/28 05:31:39;;;;;;;49.07;46.07;;;;;;;11.27;100.00;98913.24;1969534;71;85892;-74
2021/12/28 05:37:23;;;;;;;49.70;46.60;;;;;;;11.23;100.00;98927.00;1884715;73;86633;-75
2021/12/28 05:43:07;;;;;;;49.83;46.73;;;;;;;11.16;100.00;98932.28;1910966;72;86671;-72
2021/12/28 05:48:51;;;;;;;51.87;48.53;;;;;;;11.17;100.00;98929.72;1979177;71;39732;-72
2021/12/28 05:54:39;;;;;;;52.50;49.30;;;;;;;11.16;100.00;98925.91;1840758;76;85763;-75
2021/12/28 06:00:24;;;;;;;48.63;45.70;;;;;;;11.18;100.00;98921.63;1904249;73;86515;-72
2021/12/28 06:06:08;;;;;;;50.50;47.50;;;;;;;11.23;100.00;98910.90;1924892;73;86314;-72
2021/12/28 06:11:52;;;;;;;48.63;45.73;;;;;;;11.21;100.00;98911.23;1978806;71;39687;-72
2021/12/28 06:17:36;;;;;;;48.13;45.23;;;;;;;11.27;100.00;98911.28;1840734;76;85379;-72
2021/12/28 06:23:22;;;;;;;50.10;47.00;;;;;;;11.27;100.00;98918.80;1867057;75;86760;-72
2021/12/28 06:29:11;;;;;;;49.43;46.33;;;;;;;11.20;100.00;98903.24;1916847;74;85747;-72
2021/12/28 06:34:55;;;;;;;50.60;47.60;;;;;;;11.19;100.00;98901.04;1985565;71;39680;-73
2021/12/28 06:40:39;;;;;;;47.33;44.37;;;;;;;11.24;100.00;98898.64;1861906;75;85573;-73
2021/12/28 06:46:23;;;;;;;51.23;48.17;;;;;;;11.29;100.00;98899.27;1899264;73;86548;-75
2021/12/28 06:52:08;;;;;;;54.07;50.87;;;;;;;11.31;100.00;98887.79;1912897;73;86293;-72
2021/12/28 06:57:53;;;;;;;54.00;50.90;;;;;;;11.26;100.00;98876.88;1986674;71;39521;-72
2021/12/28 07:03:37;;;;;;;52.27;49.17;;;;;;;11.30;100.00;98873.65;1820763;76;86712;-75
2021/12/28 07:09:21;;;;;;;51.87;48.87;;;;;;;11.31;100.00;98877.48;1884836;73;86638;-72
2021/12/28 07:15:07;;;;;;;52.80;49.60;;;;;;;11.31;100.00;98886.40;1850411;76;86581;-75
2021/12/28 07:20:51;;;;;;;55.40;52.10;;;;;;;11.25;100.00;98897.50;1981508;71;39645;-73
2021/12/28 07:26:37;;;;;;;53.07;49.67;;;;;;;11.19;100.00;98900.22;1838889;76;85730;-73
2021/12/28 07:32:20;;;;;;;58.10;53.83;;;;;;;11.11;100.00;98914.41;1888507;74;85742;-73
2021/12/28 07:38:04;;;;;;;55.27;51.30;;;;;;;11.03;100.00;98911.11;1929423;72;86650;-75
2021/12/28 07:43:49;;;;;;;56.87;52.80;;;;;;;10.98;100.00;98933.52;1986881;71;39577;-75
2021/12/28 07:49:33;;;;;;;59.53;55.23;;;;;;;10.86;100.00;98936.20;1881181;75;86274;-76
2021/12/28 07:55:18;;;;;;;56.70;52.77;;;;;;;10.55;100.00;98914.84;1803845;78;85746;-75
2021/12/28 08:01:03;;;;;;;60.00;55.53;;;;;;;10.44;100.00;98947.67;1918912;72;86439;-73
2021/12/28 08:06:47;;;;;;;55.53;51.23;;;;;;;10.41;100.00;98928.34;1894388;74;86337;-74
2021/12/28 08:12:35;;;;;;;56.37;52.27;;;;;;;10.43;100.00;98942.72;1879106;74;85220;-75
2021/12/28 08:18:21;;;;;;;60.20;55.10;;;;;;;10.42;100.00;98940.27;1867963;75;86534;-74
2021/12/28 08:24:07;;;;;;;56.03;51.30;;;;;;;10.34;100.00;98933.60;1911700;72;86141;-76
2021/12/28 08:29:52;;;;;;;57.43;52.70;;;;;;;10.35;100.00;98935.81;1986808;71;40252;-74
2021/12/28 08:35:39;;;;;;;56.33;51.77;;;;;;;10.30;100.00;98945.12;1836670;76;85837;-75
2021/12/28 08:41:23;;;;;;;57.83;53.03;;;;;;;10.42;100.00;98938.88;1878849;73;86882;-75
2021/12/28 08:47:08;;;;;;;58.50;54.03;;;;;;;10.37;100.00;98939.05;1942095;72;86295;-75
2021/12/28 08:52:53;;;;;;;59.63;54.23;;;;;;;10.29;100.00;98946.26;1987440;71;39508;-75
2021/12/28 08:58:37;;;;;;;55.40;50.07;;;;;;;10.33;100.00;98954.73;1814722;76;86655;-75
2021/12/28 09:04:23;;;;;;;59.30;54.10;;;;;;;10.27;100.00;98972.12;1875208;75;86447;-73
2021/12/28 09:10:09;;;;;;;53.37;48.93;;;;;;;10.17;100.00;98980.80;1919540;73;86646;-73
2021/12/28 09:15:53;;;;;;;54.87;50.40;;;;;;;10.42;100.00;98977.16;1976241;71;39543;-75
2021/12/28 09:21:38;;;;;;;54.27;49.90;;;;;;;10.29;100.00;98987.06;1849610;75;86601;-76
2021/12/28 09:27:23;;;;;;;51.23;47.53;;;;;;;10.26;100.00;98978.83;1843026;75;85256;-73
2021/12/28 09:33:06;;;;;;;50.83;47.07;;;;;;;10.21;100.00;98985.11;1923549;74;86264;-73
2021/12/28 09:38:51;;;;;;;53.03;49.23;;;;;;;10.00;100.00;98977.44;1987173;71;39626;-73
2021/12/28 09:44:36;;;;;;;51.50;48.13;;;;;;;9.97;100.00;98968.36;1835967;75;86550;-72
2021/12/28 09:50:23;;;;;;;50.63;47.03;;;;;;;10.00;100.00;98972.46;1883661;73;86860;-75
2021/12/28 09:56:08;;;;;;;51.40;47.77;;;;;;;10.14;100.00;98976.45;1910157;74;86214;-74
2021/12/28 10:01:58;;;;;;;49.30;46.03;;;;;;;10.20;100.00;98959.33;1979468;71;39730;-73
2021/12/28 10:07:47;;;;;;;46.83;43.77;;;;;;;10.27;100.00;98976.28;1833687;76;86253;-72
2021/12/28 10:13:32;;;;;;;52.37;49.17;;;;;;;10.36;100.00;98986.80;1882859;74;86187;-70
2021/12/28 10:19:33;;;;;;;49.93;46.80;;;;;;;10.24;100.00;98963.64;1884763;75;86649;-73
2021/12/28 10:25:41;;;;;;;52.33;48.73;;;;;;;10.27;100.00;98972.12;1855890;76;86318;-73
2021/12/28 10:31:23;;;;;;;53.67;50.13;;;;;;;10.33;100.00;98962.48;1877051;74;86445;-74
2021/12/28 10:37:21;;;;;;;56.43;52.93;;;;;;;10.33;100.00;98988.03;1908762;74;86309;-73
2021/12/28 10:43:09;;;;;;;58.00;54.27;;;;;;;10.25;100.00;98992.45;1915110;74;86406;-73
2021/12/28 10:48:59;;;;;;;67.10;63.00;;;;;;;10.23;100.00;99008.60;1986755;71;39475;-78
2021/12/28 10:54:44;;;;;;;61.00;56.87;;;;;;;10.26;100.00;99001.59;1829100;76;86225;-75
2021/12/28 11:00:32;;;;;;;62.30;58.13;;;;;;;10.32;100.00;98995.53;1893107;73;86344;-76
2021/12/28 11:06:40;;;;;;;65.87;61.73;;;;;;;10.22;100.00;98985.36;1838879;76;86277;-74
2021/12/28 11:12:29;;;;;;;66.50;62.10;;;;;;;10.34;100.00;99002.16;1872010;74;86531;-73
2021/12/28 11:18:29;;;;;;;57.50;53.10;;;;;;;10.39;100.00;98997.83;1937401;72;85396;-75
2021/12/28 11:24:15;;;;;;;66.77;62.27;;;;;;;10.52;100.00;99011.27;1922425;72;85345;-73
2021/12/28 11:29:59;;;;;;;65.30;60.67;;;;;;;10.58;100.00;99014.92;1948085;70;40086;-77
2021/12/28 11:35:50;;;;;;;65.27;60.73;;;;;;;10.65;100.00;99033.86;1893546;74;86301;-82
2021/12/28 11:41:34;;;;;;;64.17;59.57;;;;;;;10.77;100.00;99038.98;1885912;74;85636;-73
2021/12/28 11:47:20;;;;;;;61.30;56.83;;;;;;;10.94;100.00;99043.67;1879670;74;86390;-73
2021/12/28 11:53:06;;;;;;;58.67;54.37;;;;;;;11.08;100.00;99062.31;1927157;73;86440;-71
2021/12/28 11:59:01;;;;;;;53.00;48.93;;;;;;;11.24;100.00;99067.59;1943371;71;39653;-73
2021/12/28 12:05:13;;;;;;;50.27;46.20;;;;;;;11.37;100.00;99075.46;1926712;73;85572;-74
2021/12/28 12:11:06;;;;;;;53.13;49.00;;;;;;;11.53;100.00;99080.69;1975437;71;39716;-74
2021/12/28 12:16:58;;;;;;;50.47;46.77;;;;;;;11.46;100.00;99090.14;1978505;71;39519;-72
2021/12/28 12:23:19;;;;;;;51.03;47.40;;;;;;;11.50;100.00;99101.41;1923674;73;86479;-75
2021/12/28 12:29:23;;;;;;;53.17;49.53;;;;;;;11.56;100.00;99112.56;1894307;74;85648;-73
2021/12/28 12:35:30;;;;;;;49.80;46.10;;;;;;;11.64;100.00;99125.03;1919534;72;85687;-75
2021/12/28 12:41:19;;;;;;;48.53;45.03;;;;;;;11.81;100.00;99136.68;1940167;73;86221;-73
2021/12/28 12:47:09;;;;;;;51.73;48.13;;;;;;;12.00;100.00;99150.17;1939548;72;86726;-72
2021/12/28 12:52:53;;;;;;;48.83;45.77;;;;;;;12.05;100.00;99175.03;1981378;71;39641;-73
2021/12/28 12:58:53;;;;;;;49.63;46.60;;;;;;;12.08;100.00;99191.88;1987229;71;39686;-76
2021/12/28 13:04:51;;;;;;;52.27;48.77;;;;;;;12.11;100.00;99201.50;1936576;72;86348;-74
2021/12/28 13:10:40;;;;;;;49.10;46.20;;;;;;;12.18;100.00;99218.51;1840802;76;86486;-73
2021/12/28 13:16:24;;;;;;;53.33;50.23;;;;;;;12.19;100.00;99244.59;1871993;75;85704;-75
2021/12/28 13:22:22;;;;;;;50.23;47.43;;;;;;;12.23;100.00;99246.16;1888715;73;86396;-73
2021/12/28 13:28:07;;;;;;;47.27;44.63;;;;;;;12.27;100.00;99250.73;1918635;73;86538;-73
2021/12/28 13:34:00;;;;;;;47.73;44.93;;;;;;;12.32;100.00;99271.99;1941605;71;48028;-74
2021/12/28 13:39:45;;;;;;;50.60;48.00;;;;;;;12.38;100.00;99261.46;1831021;76;85972;-75
2021/12/28 13:45:36;;;;;;;48.07;45.47;;;;;;;12.37;100.00;99284.87;1884894;74;85691;-70
2021/12/28 13:51:30;;;;;;;52.40;49.60;;;;;;;12.33;100.00;99290.30;1818952;77;86184;-72
2021/12/28 13:57:19;;;;;;;48.13;45.83;;;;;;;12.32;100.00;99297.05;1934812;73;86558;-69
2021/12/28 13:59:55;;;;;;;45.60;43.50;;;;;;;12.32;100.00;99299.83;1870666;74;936902;-72
2021/12/28 14:05:39;;;;;;;45.97;43.77;;;;;;;12.51;100.00;99309.14;1853828;75;86003;-69
2021/12/28 14:11:32;;;;;;;44.87;42.67;;;;;;;12.51;100.00;99328.06;1888089;73;86252;-68
2021/12/28 14:17:18;;;;;;;43.10;41.00;;;;;;;12.47;100.00;99328.49;1885789;74;86658;-68
2021/12/28 14:19:56;;;;;;;44.13;41.87;;;;;;;12.43;100.00;99340.63;1815129;75;936578;-68
2021/12/28 14:25:40;;;;;;;49.07;46.80;;;;;;;12.38;100.00;99363.91;1831255;76;86650;-75
2021/12/28 14:31:25;;;;;;;45.77;43.57;;;;;;;12.33;100.00;99369.66;1892327;74;86636;-73
2021/12/28 14:37:16;;;;;;;45.10;42.90;;;;;;;12.29;100.00;99407.09;1904065;74;85627;-74
2021/12/28 14:43:07;;;;;;;48.20;45.80;;;;;;;12.33;100.00;99416.98;1947633;73;86746;-71
2021/12/28 14:48:52;;;;;;;46.10;43.90;;;;;;;12.15;100.00;99435.69;1984215;71;39737;-69
2021/12/28 14:54:56;;;;;;;48.80;46.40;;;;;;;12.10;100.00;99465.67;1884848;74;86165;-74
2021/12/28 15:00:43;;;;;;;43.43;41.23;;;;;;;12.11;100.00;99490.37;1842767;76;86704;-70
2021/12/28 15:06:29;;;;;;;46.53;44.20;;;;;;;12.12;100.00;99517.64;1885152;74;86433;-72
2021/12/28 15:12:14;;;;;;;47.17;44.77;;;;;;;12.20;100.00;99534.34;1920167;73;86507;-72
2021/12/28 15:17:59;;;;;;;49.30;46.80;;;;;;;12.09;100.00;99568.41;1985245;71;39572;-71
2021/12/28 15:23:44;;;;;;;47.90;45.43;;;;;;;11.96;100.00;99588.28;1842091;76;86605;-73
2021/12/28 15:29:27;;;;;;;48.80;46.23;;;;;;;12.00;100.00;99602.36;1887170;74;86458;-72
2021/12/28 15:35:12;;;;;;;48.13;45.63;;;;;;;12.05;100.00;99602.20;1911209;74;86794;-70
2021/12/28 15:40:58;;;;;;;54.47;51.67;;;;;;;12.01;100.00;99610.39;1986875;71;39363;-72
2021/12/28 15:46:44;;;;;;;51.90;49.30;;;;;;;11.94;100.00;99624.55;1892151;74;86450;-70
2021/12/28 15:52:29;;;;;;;55.43;52.73;;;;;;;12.00;100.00;99640.75;1800825;78;85610;-70
2021/12/28 15:58:13;;;;;;;52.60;49.90;;;;;;;11.99;100.00;99664.15;1907202;74;86493;-67
2021/12/28 16:03:56;;;;;;;55.83;53.13;;;;;;;11.99;100.00;99675.84;1980307;71;39539;-66
2021/12/28 16:09:42;;;;;;;58.87;56.07;;;;;;;11.97;100.00;99697.06;1849933;74;86491;-72
2021/12/28 16:15:28;;;;;;;55.60;52.90;;;;;;;11.95;100.00;99713.81;1883803;74;85657;-72
2021/12/28 16:21:13;;;;;;;55.43;52.83;;;;;;;11.95;100.00;99738.86;1910195;72;86328;-71
2021/12/28 16:26:57;;;;;;;59.80;56.80;;;;;;;11.92;100.00;99763.98;1973647;71;40346;-74
2021/12/28 16:32:40;;;;;;;54.10;51.40;;;;;;;11.96;100.00;99791.98;1814501;76;86777;-68
2021/12/28 16:38:24;;;;;;;54.77;51.87;;;;;;;11.95;100.00;99798.69;1880063;74;86470;-71
2021/12/28 16:44:08;;;;;;;52.73;49.93;;;;;;;11.94;100.00;99810.38;1936294;73;86253;-73
2021/12/28 16:53:02;;;;;;;53.43;50.63;;;;;;;11.94;100.00;99820.72;1966949;69;39595;-73
2021/12/28 16:55:33;;;;;;;50.73;48.13;;;;;;;11.90;100.00;99839.98;1924499;73;934864;-72
2021/12/28 16:58:04;;;;;;;51.43;48.90;;;;;;;11.91;100.00;99851.95;1885992;75;938910;-69
2021/12/28 17:00:34;;;;;;;54.27;51.50;;;;;;;11.90;100.00;99857.25;1922927;73;936817;-73
2021/12/28 17:03:05;;;;;;;54.77;52.00;;;;;;;11.91;100.00;99858.34;1864071;74;938871;-70
2021/12/28 17:05:36;;;;;;;54.50;51.70;;;;;;;11.91;100.00;99870.86;1913431;73;936835;-73
2021/12/28 17:11:22;;;;;;;52.40;49.70;;;;;;;11.86;100.00;99857.90;1891396;74;86712;-71
2021/12/28 17:17:10;;;;;;;55.20;52.30;;;;;;;11.86;100.00;99877.38;1914556;72;85651;-73
2021/12/28 17:22:54;;;;;;;53.90;51.10;;;;;;;11.83;100.00;99899.45;1950207;71;39511;-74
2021/12/28 17:28:40;;;;;;;50.03;47.33;;;;;;;11.79;100.00;99919.31;1849554;76;86237;-74
2021/12/28 17:34:25;;;;;;;52.03;49.23;;;;;;;11.75;100.00;99939.16;1875428;74;86172;-70
2021/12/28 17:40:12;;;;;;;56.53;53.63;;;;;;;11.73;100.00;99949.20;1924938;73;86334;-71
2021/12/28 17:45:56;;;;;;;46.83;44.23;;;;;;;11.74;100.00;99961.16;1945201;71;39587;-69
2021/12/28 17:51:42;;;;;;;52.10;49.20;;;;;;;11.71;100.00;99973.72;1840348;75;86437;-70
2021/12/28 17:57:26;;;;;;;51.07;48.07;;;;;;;11.64;100.00;99994.17;1870569;75;86146;-69
2021/12/28 18:03:18;;;;;;;51.90;48.80;;;;;;;11.64;100.00;99999.73;1876441;76;85670;-77
2021/12/28 18:09:00;;;;;;;53.30;50.20;;;;;;;11.66;100.00;99999.43;1979054;71;39457;-77
2021/12/28 18:14:46;;;;;;;51.90;48.90;;;;;;;11.58;100.00;100010.73;1837979;76;86023;-76
2021/12/28 18:20:31;;;;;;;51.23;48.13;;;;;;;11.62;100.00;100025.66;1809709;78;86518;-77
2021/12/28 18:26:15;;;;;;;50.70;47.70;;;;;;;11.60;100.00;100048.78;1943599;72;86673;-77
2021/12/28 18:32:00;;;;;;;51.87;48.93;;;;;;;11.57;100.00;100066.09;1929177;71;39811;-76
2021/12/28 18:37:45;;;;;;;48.73;46.03;;;;;;;11.57;100.00;100061.93;1820125;76;86268;-70
2021/12/28 18:43:30;;;;;;;49.47;46.73;;;;;;;11.55;100.00;100087.02;1808236;78;86276;-76
2021/12/28 18:49:16;;;;;;;49.03;46.23;;;;;;;11.52;100.00;100112.09;1950371;72;86446;-68
2021/12/28 18:55:01;;;;;;;49.03;46.37;;;;;;;11.56;100.00;100133.98;1980254;71;39672;-76
2021/12/28 19:00:45;;;;;;;48.70;46.00;;;;;;;11.57;100.00;100143.98;1838991;76;86591;-68
2021/12/28 19:06:30;;;;;;;44.30;41.90;;;;;;;11.57;100.00;100154.27;1801506;78;86208;-68
2021/12/28 19:12:15;;;;;;;46.90;44.60;;;;;;;11.58;100.00;100147.02;1934072;73;85493;-76
2021/12/28 19:17:59;;;;;;;46.67;44.37;;;;;;;11.63;100.00;100169.17;1985803;70;39620;-68
2021/12/28 19:23:44;;;;;;;44.97;42.57;;;;;;;11.64;100.00;100196.41;1831415;76;86750;-75
2021/12/28 19:29:27;;;;;;;45.37;43.07;;;;;;;11.62;100.00;100198.69;1884088;73;86412;-69
2021/12/28 19:35:14;;;;;;;42.87;40.70;;;;;;;11.57;100.00;100208.52;1909254;72;86417;-75
2021/12/28 19:40:59;;;;;;;44.03;41.73;;;;;;;11.60;100.00;100227.36;1941522;71;39596;-72
2021/12/28 19:46:43;;;;;;;43.80;41.60;;;;;;;11.70;100.00;100220.22;1850550;76;85448;-77
2021/12/28 19:52:52;;;;;;;44.83;42.63;;;;;;;11.52;100.00;100229.46;1795200;78;86823;-80
2021/12/28 19:58:42;;;;;;;44.30;42.00;;;;;;;11.52;100.00;100228.90;1894001;74;86635;-71
2021/12/28 20:04:26;;;;;;;51.87;48.47;;;;;;;11.46;100.00;100251.56;1887294;74;86256;-71
2021/12/28 20:10:14;;;;;;;48.13;45.53;;;;;;;11.41;100.00;100268.60;1908868;74;86385;-69
2021/12/28 20:16:00;;;;;;;48.20;45.70;;;;;;;11.45;100.00;100279.10;1984345;71;40541;-74
2021/12/28 20:21:44;;;;;;;43.57;41.27;;;;;;;11.34;100.00;100275.09;1859596;76;86838;-71
2021/12/28 20:27:29;;;;;;;47.87;45.27;;;;;;;11.39;100.00;100288.92;1878808;75;86573;-71
2021/12/28 20:33:12;;;;;;;51.63;49.13;;;;;;;11.38;100.00;100305.92;1940262;73;86222;-69
2021/12/28 20:38:56;;;;;;;51.23;48.63;;;;;;;11.34;100.00;100312.64;1978639;71;39861;-78
2021/12/28 20:44:40;;;;;;;58.63;54.90;;;;;;;11.26;100.00;100327.79;1829987;76;86800;-71
2021/12/28 20:50:26;;;;;;;52.47;49.87;;;;;;;11.30;100.00;100326.05;1907992;73;86329;-79
2021/12/28 20:56:16;;;;;;;51.20;48.57;;;;;;;11.28;100.00;100322.77;1911431;74;86540;-76
2021/12/28 21:02:00;;;;;;;49.90;47.40;;;;;;;11.24;100.00;100320.33;1955207;71;39383;-70
2021/12/28 21:07:45;;;;;;;53.23;50.57;;;;;;;11.25;100.00;100329.73;1834067;76;86466;-70
2021/12/28 21:13:32;;;;;;;53.47;50.77;;;;;;;11.19;100.00;100339.30;1801245;78;86830;-70
2021/12/28 21:19:16;;;;;;;51.67;49.17;;;;;;;11.19;100.00;100350.42;1903637;74;86355;-77
2021/12/28 21:25:02;;;;;;;52.77;49.90;;;;;;;11.18;100.00;100366.00;1941421;72;86316;-70
2021/12/28 21:30:45;;;;;;;53.20;50.40;;;;;;;11.15;100.00;100356.89;1826344;76;85491;-80
2021/12/28 21:36:33;;;;;;;52.23;49.43;;;;;;;11.09;100.00;100367.80;1808293;78;86470;-69
2021/12/28 21:42:16;;;;;;;54.50;51.60;;;;;;;11.15;100.00;100376.34;1921275;73;86889;-80
2021/12/28 21:48:02;;;;;;;53.07;50.23;;;;;;;11.10;100.00;100381.41;1832010;77;85615;-80
2021/12/28 21:53:46;;;;;;;54.13;51.13;;;;;;;11.07;100.00;100383.97;1812392;78;86777;-68
2021/12/28 21:59:30;;;;;;;57.27;54.17;;;;;;;11.02;100.00;100393.77;1799179;78;86109;-77
2021/12/28 22:05:17;;;;;;;57.33;54.13;;;;;;;10.95;100.00;100399.11;1912412;72;86443;-70
2021/12/28 22:11:01;;;;;;;55.87;52.67;;;;;;;10.86;100.00;100412.05;1924612;73;86354;-71
2021/12/28 22:16:48;;;;;;;58.87;55.37;;;;;;;10.80;100.00;100430.45;1832284;76;86501;-70
2021/12/28 22:22:33;;;;;;;55.17;51.70;;;;;;;10.75;100.00;100454.95;1900915;73;86432;-70
2021/12/28 22:28:15;;;;;;;56.33;53.03;;;;;;;10.68;100.00;100466.99;1909595;72;85910;-75
2021/12/28 22:34:00;;;;;;;56.93;53.57;;;;;;;10.31;100.00;100406.58;1839311;70;39585;-81
2021/12/28 22:39:44;;;;;;;55.77;52.27;;;;;;;10.61;100.00;100470.66;1843516;76;86413;-79
2021/12/28 22:45:28;;;;;;;58.90;55.40;;;;;;;10.48;100.00;100483.88;1888888;73;86220;-69
2021/12/28 22:51:12;;;;;;;59.50;55.90;;;;;;;10.50;100.00;100495.52;1923782;73;85350;-70
2021/12/28 22:57:04;;;;;;;56.37;52.87;;;;;;;10.49;100.00;100512.73;1930017;73;86159;-78
2021/12/28 23:02:54;;;;;;;58.23;54.77;;;;;;;10.39;100.00;100503.69;1975361;72;85503;-79
2021/12/28 23:08:42;;;;;;;58.60;54.80;;;;;;;10.27;100.00;100506.03;1824174;76;86267;-78
2021/12/28 23:14:26;;;;;;;57.23;53.60;;;;;;;10.10;100.00;100507.78;1888692;73;86273;-71
2021/12/28 23:20:14;;;;;;;54.97;51.50;;;;;;;10.21;100.00;100528.00;1907314;72;85551;-79
2021/12/28 23:26:01;;;;;;;58.40;54.70;;;;;;;10.06;100.00;100532.52;1980023;71;39688;-77
2021/12/28 23:31:44;;;;;;;53.57;50.10;;;;;;;9.91;100.00;100530.42;1858541;76;86588;-71
2021/12/28 23:37:29;;;;;;;56.17;52.53;;;;;;;9.92;100.00;100537.08;1893110;73;86938;-78
2021/12/28 23:43:13;;;;;;;55.37;52.07;;;;;;;9.85;100.00;100539.33;1917536;74;86686;-78
2021/12/28 23:48:58;;;;;;;58.50;54.90;;;;;;;9.83;100.00;100535.20;1975470;71;39559;-76
2021/12/28 23:54:43;;;;;;;58.37;54.73;;;;;;;9.74;100.00;100532.20;1932931;72;86712;-71
